sensor_id;sensor_type;location;lat;lon;timestamp;temperature;humidity
42141;DHT22;27809;51.864;5.646;2023-07-08T00:00:25;19.00;1.00
42141;DHT22;27809;51.864;5.646;2023-07-08T00:02:52;19.00;1.00
42141;DHT22;27809;51.864;5.646;2023-07-08T00:05:19;19.10;1.00
42141;DHT22;27809;51.864;5.646;2023-07-08T00:07:46;19.10;1.00
42141;DHT22;27809;51.864;5.646;2023-07-08T00:10:14;19.00;1.00
42141;DHT22;27809;51.864;5.646;2023-07-08T00:12:42;19.00;1.00
42141;DHT22;27809;51.864;5.646;2023-07-08T00:15:08;18.90;1.00
42141;DHT22;27809;51.864;5.646;2023-07-08T00:17:34;18.80;1.00
42141;DHT22;27809;51.864;5.646;2023-07-08T00:19:59;18.80;1.00
42141;DHT22;27809;51.864;5.646;2023-07-08T00:22:25;18.90;1.00
42141;DHT22;27809;51.864;5.646;2023-07-08T00:24:51;18.90;1.00
42141;DHT22;27809;51.864;5.646;2023-07-08T00:27:16;19.00;1.00
42141;DHT22;27809;51.864;5.646;2023-07-08T00:29:42;19.00;1.00
42141;DHT22;27809;51.864;5.646;2023-07-08T00:32:14;19.00;1.00
42141;DHT22;27809;51.864;5.646;2023-07-08T00:34:40;19.00;1.00
42141;DHT22;27809;51.864;5.646;2023-07-08T00:37:10;19.10;1.00
42141;DHT22;27809;51.864;5.646;2023-07-08T00:39:36;19.10;1.00
42141;DHT22;27809;51.864;5.646;2023-07-08T00:42:13;19.00;1.00
42141;DHT22;27809;51.864;5.646;2023-07-08T00:44:41;18.80;1.00
42141;DHT22;27809;51.864;5.646;2023-07-08T00:47:10;18.80;1.00
42141;DHT22;27809;51.864;5.646;2023-07-08T00:49:40;18.70;1.00
42141;DHT22;27809;51.864;5.646;2023-07-08T00:52:26;18.70;1.00
42141;DHT22;27809;51.864;5.646;2023-07-08T00:54:54;18.70;1.00
42141;DHT22;27809;51.864;5.646;2023-07-08T00:57:21;18.60;1.00
42141;DHT22;27809;51.864;5.646;2023-07-08T00:59:54;18.60;1.00
42141;DHT22;27809;51.864;5.646;2023-07-08T01:02:24;18.50;1.00
42141;DHT22;27809;51.864;5.646;2023-07-08T01:05:02;18.40;1.00
42141;DHT22;27809;51.864;5.646;2023-07-08T01:07:30;18.50;1.00
42141;DHT22;27809;51.864;5.646;2023-07-08T01:10:02;18.50;1.00
42141;DHT22;27809;51.864;5.646;2023-07-08T01:12:35;18.50;1.00
42141;DHT22;27809;51.864;5.646;2023-07-08T01:15:02;18.40;1.10
42141;DHT22;27809;51.864;5.646;2023-07-08T01:17:28;18.50;1.00
42141;DHT22;27809;51.864;5.646;2023-07-08T01:20:01;18.50;1.00
42141;DHT22;27809;51.864;5.646;2023-07-08T01:22:31;18.60;1.00
42141;DHT22;27809;51.864;5.646;2023-07-08T01:24:58;18.50;1.00
42141;DHT22;27809;51.864;5.646;2023-07-08T01:27:30;18.50;1.00
42141;DHT22;27809;51.864;5.646;2023-07-08T01:29:58;18.50;1.00
42141;DHT22;27809;51.864;5.646;2023-07-08T01:32:24;18.40;1.00
42141;DHT22;27809;51.864;5.646;2023-07-08T01:34:51;18.30;1.00
42141;DHT22;27809;51.864;5.646;2023-07-08T01:37:36;18.50;1.00
42141;DHT22;27809;51.864;5.646;2023-07-08T01:40:29;18.60;1.00
42141;DHT22;27809;51.864;5.646;2023-07-08T01:42:56;18.40;1.00
42141;DHT22;27809;51.864;5.646;2023-07-08T01:45:24;18.30;1.00
42141;DHT22;27809;51.864;5.646;2023-07-08T01:47:59;18.20;1.00
42141;DHT22;27809;51.864;5.646;2023-07-08T01:50:26;18.10;1.00
42141;DHT22;27809;51.864;5.646;2023-07-08T01:52:53;18.10;1.00
42141;DHT22;27809;51.864;5.646;2023-07-08T01:55:25;18.10;1.00
42141;DHT22;27809;51.864;5.646;2023-07-08T01:57:54;18.10;1.00
42141;DHT22;27809;51.864;5.646;2023-07-08T02:00:20;18.00;1.00
42141;DHT22;27809;51.864;5.646;2023-07-08T02:02:47;18.00;1.50
42141;DHT22;27809;51.864;5.646;2023-07-08T02:05:13;18.00;2.80
42141;DHT22;27809;51.864;5.646;2023-07-08T02:07:38;17.80;6.80
42141;DHT22;27809;51.864;5.646;2023-07-08T02:10:05;17.80;7.20
42141;DHT22;27809;51.864;5.646;2023-07-08T02:12:30;17.70;8.30
42141;DHT22;27809;51.864;5.646;2023-07-08T02:14:56;17.70;9.30
42141;DHT22;27809;51.864;5.646;2023-07-08T02:17:21;17.60;9.00
42141;DHT22;27809;51.864;5.646;2023-07-08T02:19:47;17.60;10.90
42141;DHT22;27809;51.864;5.646;2023-07-08T02:22:12;17.60;8.90
42141;DHT22;27809;51.864;5.646;2023-07-08T02:24:38;17.60;10.30
42141;DHT22;27809;51.864;5.646;2023-07-08T02:27:03;17.60;11.80
42141;DHT22;27809;51.864;5.646;2023-07-08T02:29:29;17.70;9.30
42141;DHT22;27809;51.864;5.646;2023-07-08T02:31:57;17.80;1.70
42141;DHT22;27809;51.864;5.646;2023-07-08T02:34:23;17.90;1.00
42141;DHT22;27809;51.864;5.646;2023-07-08T02:36:48;17.90;1.00
42141;DHT22;27809;51.864;5.646;2023-07-08T02:39:14;17.80;1.00
42141;DHT22;27809;51.864;5.646;2023-07-08T02:41:39;17.80;1.00
42141;DHT22;27809;51.864;5.646;2023-07-08T02:44:05;17.80;1.00
42141;DHT22;27809;51.864;5.646;2023-07-08T02:46:30;17.70;2.50
42141;DHT22;27809;51.864;5.646;2023-07-08T02:48:56;17.70;2.70
42141;DHT22;27809;51.864;5.646;2023-07-08T02:51:21;17.60;6.60
42141;DHT22;27809;51.864;5.646;2023-07-08T02:53:48;17.60;7.30
42141;DHT22;27809;51.864;5.646;2023-07-08T02:56:15;17.60;4.50
42141;DHT22;27809;51.864;5.646;2023-07-08T02:58:40;17.70;4.70
42141;DHT22;27809;51.864;5.646;2023-07-08T03:01:06;17.60;4.80
42141;DHT22;27809;51.864;5.646;2023-07-08T03:03:31;17.50;11.50
42141;DHT22;27809;51.864;5.646;2023-07-08T03:06:02;17.40;8.30
42141;DHT22;27809;51.864;5.646;2023-07-08T03:08:29;17.40;11.80
42141;DHT22;27809;51.864;5.646;2023-07-08T03:10:58;17.30;12.80
42141;DHT22;27809;51.864;5.646;2023-07-08T03:13:25;17.40;10.00
42141;DHT22;27809;51.864;5.646;2023-07-08T03:15:51;17.40;10.00
42141;DHT22;27809;51.864;5.646;2023-07-08T03:18:16;17.40;10.80
42141;DHT22;27809;51.864;5.646;2023-07-08T03:20:42;17.30;12.00
42141;DHT22;27809;51.864;5.646;2023-07-08T03:23:10;17.30;12.80
42141;DHT22;27809;51.864;5.646;2023-07-08T03:25:36;17.20;16.50
42141;DHT22;27809;51.864;5.646;2023-07-08T03:28:03;17.10;18.40
42141;DHT22;27809;51.864;5.646;2023-07-08T03:30:31;17.10;18.50
42141;DHT22;27809;51.864;5.646;2023-07-08T03:32:57;17.00;22.40
42141;DHT22;27809;51.864;5.646;2023-07-08T03:35:23;17.00;22.90
42141;DHT22;27809;51.864;5.646;2023-07-08T03:37:48;16.90;22.60
42141;DHT22;27809;51.864;5.646;2023-07-08T03:40:14;17.00;22.20
42141;DHT22;27809;51.864;5.646;2023-07-08T03:42:39;17.00;21.50
42141;DHT22;27809;51.864;5.646;2023-07-08T03:45:05;17.00;22.80
42141;DHT22;27809;51.864;5.646;2023-07-08T03:47:31;17.00;23.10
42141;DHT22;27809;51.864;5.646;2023-07-08T03:49:56;17.10;19.20
42141;DHT22;27809;51.864;5.646;2023-07-08T03:52:22;17.10;16.30
42141;DHT22;27809;51.864;5.646;2023-07-08T03:54:47;17.20;16.80
42141;DHT22;27809;51.864;5.646;2023-07-08T03:57:13;17.20;20.90
42141;DHT22;27809;51.864;5.646;2023-07-08T03:59:38;17.10;19.50
42141;DHT22;27809;51.864;5.646;2023-07-08T04:02:04;17.10;20.60
42141;DHT22;27809;51.864;5.646;2023-07-08T04:04:29;17.00;25.30
42141;DHT22;27809;51.864;5.646;2023-07-08T04:06:55;17.00;23.90
42141;DHT22;27809;51.864;5.646;2023-07-08T04:09:21;16.90;29.00
42141;DHT22;27809;51.864;5.646;2023-07-08T04:11:46;16.90;29.30
42141;DHT22;27809;51.864;5.646;2023-07-08T04:14:12;16.90;30.70
42141;DHT22;27809;51.864;5.646;2023-07-08T04:16:51;16.90;34.90
42141;DHT22;27809;51.864;5.646;2023-07-08T04:19:17;16.90;29.90
42141;DHT22;27809;51.864;5.646;2023-07-08T04:21:44;17.00;28.60
42141;DHT22;27809;51.864;5.646;2023-07-08T04:24:15;17.00;33.60
42141;DHT22;27809;51.864;5.646;2023-07-08T04:26:40;17.00;34.80
42141;DHT22;27809;51.864;5.646;2023-07-08T04:29:14;17.00;33.60
42141;DHT22;27809;51.864;5.646;2023-07-08T04:31:40;17.00;31.20
42141;DHT22;27809;51.864;5.646;2023-07-08T04:34:07;17.00;32.30
42141;DHT22;27809;51.864;5.646;2023-07-08T04:36:33;17.10;28.00
42141;DHT22;27809;51.864;5.646;2023-07-08T04:39:00;17.10;29.50
42141;DHT22;27809;51.864;5.646;2023-07-08T04:41:25;17.10;34.90
42141;DHT22;27809;51.864;5.646;2023-07-08T04:43:52;17.10;35.20
42141;DHT22;27809;51.864;5.646;2023-07-08T04:46:45;17.10;36.80
42141;DHT22;27809;51.864;5.646;2023-07-08T04:49:12;17.10;38.80
42141;DHT22;27809;51.864;5.646;2023-07-08T04:51:39;17.10;36.90
42141;DHT22;27809;51.864;5.646;2023-07-08T04:54:05;17.20;36.00
42141;DHT22;27809;51.864;5.646;2023-07-08T04:56:46;17.20;32.40
42141;DHT22;27809;51.864;5.646;2023-07-08T04:59:15;17.40;29.50
42141;DHT22;27809;51.864;5.646;2023-07-08T05:01:42;17.40;28.70
42141;DHT22;27809;51.864;5.646;2023-07-08T05:04:10;17.50;29.10
42141;DHT22;27809;51.864;5.646;2023-07-08T05:06:36;17.50;27.30
42141;DHT22;27809;51.864;5.646;2023-07-08T05:09:03;17.60;29.20
42141;DHT22;27809;51.864;5.646;2023-07-08T05:11:29;17.60;29.70
42141;DHT22;27809;51.864;5.646;2023-07-08T05:13:55;17.60;25.10
42141;DHT22;27809;51.864;5.646;2023-07-08T05:16:20;17.70;25.70
42141;DHT22;27809;51.864;5.646;2023-07-08T05:18:46;17.80;25.90
42141;DHT22;27809;51.864;5.646;2023-07-08T05:21:12;17.80;23.40
42141;DHT22;27809;51.864;5.646;2023-07-08T05:23:38;17.90;24.90
42141;DHT22;27809;51.864;5.646;2023-07-08T05:26:04;18.00;29.30
42141;DHT22;27809;51.864;5.646;2023-07-08T05:28:31;18.10;26.30
42141;DHT22;27809;51.864;5.646;2023-07-08T05:30:57;18.10;21.30
42141;DHT22;27809;51.864;5.646;2023-07-08T05:33:24;18.20;21.80
42141;DHT22;27809;51.864;5.646;2023-07-08T05:35:50;18.30;24.40
42141;DHT22;27809;51.864;5.646;2023-07-08T05:38:15;18.40;21.20
42141;DHT22;27809;51.864;5.646;2023-07-08T05:40:41;18.50;23.70
42141;DHT22;27809;51.864;5.646;2023-07-08T05:43:06;18.50;21.10
42141;DHT22;27809;51.864;5.646;2023-07-08T05:45:32;18.60;19.50
42141;DHT22;27809;51.864;5.646;2023-07-08T05:47:57;20.40;1.00
42141;DHT22;27809;51.864;5.646;2023-07-08T05:50:23;21.50;1.00
42141;DHT22;27809;51.864;5.646;2023-07-08T05:52:48;21.40;1.00
42141;DHT22;27809;51.864;5.646;2023-07-08T05:55:14;20.60;1.00
42141;DHT22;27809;51.864;5.646;2023-07-08T05:57:40;20.80;1.00
42141;DHT22;27809;51.864;5.646;2023-07-08T06:00:06;21.30;1.00
42141;DHT22;27809;51.864;5.646;2023-07-08T06:02:31;21.10;1.00
42141;DHT22;27809;51.864;5.646;2023-07-08T06:04:57;21.40;1.00
42141;DHT22;27809;51.864;5.646;2023-07-08T06:07:22;21.40;1.00
42141;DHT22;27809;51.864;5.646;2023-07-08T06:09:48;21.50;1.00
42141;DHT22;27809;51.864;5.646;2023-07-08T06:12:13;21.30;1.00
42141;DHT22;27809;51.864;5.646;2023-07-08T06:14:39;21.30;1.00
42141;DHT22;27809;51.864;5.646;2023-07-08T06:17:05;21.30;1.00
42141;DHT22;27809;51.864;5.646;2023-07-08T06:19:30;21.50;1.00
42141;DHT22;27809;51.864;5.646;2023-07-08T06:21:56;21.80;1.00
42141;DHT22;27809;51.864;5.646;2023-07-08T06:24:22;21.80;1.00
42141;DHT22;27809;51.864;5.646;2023-07-08T06:26:47;21.70;1.00
42141;DHT22;27809;51.864;5.646;2023-07-08T06:29:13;21.90;1.00
42141;DHT22;27809;51.864;5.646;2023-07-08T06:31:38;21.90;1.00
42141;DHT22;27809;51.864;5.646;2023-07-08T06:34:04;21.60;1.00
42141;DHT22;27809;51.864;5.646;2023-07-08T06:36:30;21.60;1.00
42141;DHT22;27809;51.864;5.646;2023-07-08T06:38:55;21.20;1.00
42141;DHT22;27809;51.864;5.646;2023-07-08T06:41:21;21.50;1.00
42141;DHT22;27809;51.864;5.646;2023-07-08T06:43:47;22.00;1.00
42141;DHT22;27809;51.864;5.646;2023-07-08T06:46:12;22.20;1.00
42141;DHT22;27809;51.864;5.646;2023-07-08T06:48:38;22.30;1.00
42141;DHT22;27809;51.864;5.646;2023-07-08T06:51:03;22.30;1.00
42141;DHT22;27809;51.864;5.646;2023-07-08T06:53:29;22.40;1.00
42141;DHT22;27809;51.864;5.646;2023-07-08T06:55:54;22.50;1.00
42141;DHT22;27809;51.864;5.646;2023-07-08T06:58:20;22.60;1.00
42141;DHT22;27809;51.864;5.646;2023-07-08T07:00:46;22.40;1.00
42141;DHT22;27809;51.864;5.646;2023-07-08T07:03:12;21.80;1.00
42141;DHT22;27809;51.864;5.646;2023-07-08T07:05:39;22.30;1.00
42141;DHT22;27809;51.864;5.646;2023-07-08T07:08:05;22.40;1.00
42141;DHT22;27809;51.864;5.646;2023-07-08T07:10:32;22.60;1.00
42141;DHT22;27809;51.864;5.646;2023-07-08T07:12:57;22.90;1.00
42141;DHT22;27809;51.864;5.646;2023-07-08T07:15:23;22.90;1.00
42141;DHT22;27809;51.864;5.646;2023-07-08T07:17:50;23.00;1.00
42141;DHT22;27809;51.864;5.646;2023-07-08T07:20:15;22.50;1.00
42141;DHT22;27809;51.864;5.646;2023-07-08T07:22:41;22.40;1.00
42141;DHT22;27809;51.864;5.646;2023-07-08T07:25:06;22.30;1.00
42141;DHT22;27809;51.864;5.646;2023-07-08T07:27:32;22.40;1.00
42141;DHT22;27809;51.864;5.646;2023-07-08T07:29:58;22.50;1.00
42141;DHT22;27809;51.864;5.646;2023-07-08T07:32:26;22.50;1.00
42141;DHT22;27809;51.864;5.646;2023-07-08T07:34:53;22.60;1.00
42141;DHT22;27809;51.864;5.646;2023-07-08T07:37:20;22.60;1.00
42141;DHT22;27809;51.864;5.646;2023-07-08T07:39:46;22.90;1.00
42141;DHT22;27809;51.864;5.646;2023-07-08T07:42:14;23.40;1.00
42141;DHT22;27809;51.864;5.646;2023-07-08T07:44:40;23.60;1.00
42141;DHT22;27809;51.864;5.646;2023-07-08T07:47:07;24.10;1.00
42141;DHT22;27809;51.864;5.646;2023-07-08T07:49:32;24.20;1.00
42141;DHT22;27809;51.864;5.646;2023-07-08T07:51:58;24.40;1.00
42141;DHT22;27809;51.864;5.646;2023-07-08T07:54:24;24.60;1.00
42141;DHT22;27809;51.864;5.646;2023-07-08T07:56:49;24.80;1.00
42141;DHT22;27809;51.864;5.646;2023-07-08T07:59:15;25.00;1.00
42141;DHT22;27809;51.864;5.646;2023-07-08T08:01:40;24.90;1.00
42141;DHT22;27809;51.864;5.646;2023-07-08T08:04:10;25.20;1.00
42141;DHT22;27809;51.864;5.646;2023-07-08T08:06:36;25.60;1.00
42141;DHT22;27809;51.864;5.646;2023-07-08T08:09:05;25.30;1.00
42141;DHT22;27809;51.864;5.646;2023-07-08T08:11:32;25.80;1.00
42141;DHT22;27809;51.864;5.646;2023-07-08T08:13:57;25.70;1.00
42141;DHT22;27809;51.864;5.646;2023-07-08T08:16:23;26.10;1.00
42141;DHT22;27809;51.864;5.646;2023-07-08T08:18:49;26.50;1.00
42141;DHT22;27809;51.864;5.646;2023-07-08T08:21:14;26.20;1.00
42141;DHT22;27809;51.864;5.646;2023-07-08T08:23:40;26.50;1.00
42141;DHT22;27809;51.864;5.646;2023-07-08T08:26:06;26.80;1.00
42141;DHT22;27809;51.864;5.646;2023-07-08T08:28:31;26.90;1.00
42141;DHT22;27809;51.864;5.646;2023-07-08T08:30:57;27.00;1.00
42141;DHT22;27809;51.864;5.646;2023-07-08T08:33:22;27.10;1.00
42141;DHT22;27809;51.864;5.646;2023-07-08T08:35:48;27.00;1.00
42141;DHT22;27809;51.864;5.646;2023-07-08T08:38:13;27.00;1.00
42141;DHT22;27809;51.864;5.646;2023-07-08T08:40:41;27.30;1.00
42141;DHT22;27809;51.864;5.646;2023-07-08T08:43:12;27.50;1.00
42141;DHT22;27809;51.864;5.646;2023-07-08T08:46:02;27.50;1.00
42141;DHT22;27809;51.864;5.646;2023-07-08T08:48:32;27.60;1.00
42141;DHT22;27809;51.864;5.646;2023-07-08T08:51:05;27.70;1.00
42141;DHT22;27809;51.864;5.646;2023-07-08T08:53:31;28.20;1.00
42141;DHT22;27809;51.864;5.646;2023-07-08T08:56:19;28.10;1.00
42141;DHT22;27809;51.864;5.646;2023-07-08T08:58:50;28.30;1.00
42141;DHT22;27809;51.864;5.646;2023-07-08T09:01:19;28.60;1.00
42141;DHT22;27809;51.864;5.646;2023-07-08T09:03:52;28.20;1.00
42141;DHT22;27809;51.864;5.646;2023-07-08T09:06:27;28.30;1.00
42141;DHT22;27809;51.864;5.646;2023-07-08T09:08:54;28.10;1.00
42141;DHT22;27809;51.864;5.646;2023-07-08T09:11:38;28.00;1.00
42141;DHT22;27809;51.864;5.646;2023-07-08T09:14:07;28.50;1.00
42141;DHT22;27809;51.864;5.646;2023-07-08T09:17:32;28.50;1.00
42141;DHT22;27809;51.864;5.646;2023-07-08T09:19:38;28.20;1.00
42141;DHT22;27809;51.864;5.646;2023-07-08T09:24:52;28.90;1.00
42141;DHT22;27809;51.864;5.646;2023-07-08T09:27:19;29.20;1.00
42141;DHT22;27809;51.864;5.646;2023-07-08T09:29:46;29.20;1.00
42141;DHT22;27809;51.864;5.646;2023-07-08T09:32:16;29.40;1.00
42141;DHT22;27809;51.864;5.646;2023-07-08T09:34:54;29.60;1.00
42141;DHT22;27809;51.864;5.646;2023-07-08T09:37:34;29.60;1.00
42141;DHT22;27809;51.864;5.646;2023-07-08T09:40:03;29.60;1.00
42141;DHT22;27809;51.864;5.646;2023-07-08T09:42:31;29.90;1.00
42141;DHT22;27809;51.864;5.646;2023-07-08T09:45:00;29.90;1.00
42141;DHT22;27809;51.864;5.646;2023-07-08T09:47:33;29.80;1.00
42141;DHT22;27809;51.864;5.646;2023-07-08T09:50:00;30.00;1.00
42141;DHT22;27809;51.864;5.646;2023-07-08T09:52:28;29.20;1.00
42141;DHT22;27809;51.864;5.646;2023-07-08T09:54:55;29.50;1.00
42141;DHT22;27809;51.864;5.646;2023-07-08T09:57:31;29.80;1.00
42141;DHT22;27809;51.864;5.646;2023-07-08T09:59:59;29.20;1.00
42141;DHT22;27809;51.864;5.646;2023-07-08T10:02:32;29.00;1.00
42141;DHT22;27809;51.864;5.646;2023-07-08T10:05:01;29.20;1.00
42141;DHT22;27809;51.864;5.646;2023-07-08T10:07:29;30.00;1.00
42141;DHT22;27809;51.864;5.646;2023-07-08T10:09:59;30.40;1.00
42141;DHT22;27809;51.864;5.646;2023-07-08T10:12:25;30.30;1.00
42141;DHT22;27809;51.864;5.646;2023-07-08T10:14:56;30.20;1.00
42141;DHT22;27809;51.864;5.646;2023-07-08T10:17:23;30.60;1.00
42141;DHT22;27809;51.864;5.646;2023-07-08T10:19:49;30.70;1.00
42141;DHT22;27809;51.864;5.646;2023-07-08T10:25:25;30.40;1.00
42141;DHT22;27809;51.864;5.646;2023-07-08T10:30:36;31.10;1.00
42141;DHT22;27809;51.864;5.646;2023-07-08T10:33:13;31.50;1.00
42141;DHT22;27809;51.864;5.646;2023-07-08T10:47:16;31.70;1.00
42141;DHT22;27809;51.864;5.646;2023-07-08T10:53:09;31.60;1.00
42141;DHT22;27809;51.864;5.646;2023-07-08T10:56:16;31.60;1.00
42141;DHT22;27809;51.864;5.646;2023-07-08T10:58:52;31.50;1.00
42141;DHT22;27809;51.864;5.646;2023-07-08T11:06:26;31.70;1.00
42141;DHT22;27809;51.864;5.646;2023-07-08T11:08:57;31.50;1.00
42141;DHT22;27809;51.864;5.646;2023-07-08T11:11:55;31.40;1.00
42141;DHT22;27809;51.864;5.646;2023-07-08T11:14:36;31.40;1.00
42141;DHT22;27809;51.864;5.646;2023-07-08T11:17:27;31.30;1.00
42141;DHT22;27809;51.864;5.646;2023-07-08T11:20:10;30.90;1.00
42141;DHT22;27809;51.864;5.646;2023-07-08T11:22:45;30.80;1.00
42141;DHT22;27809;51.864;5.646;2023-07-08T11:25:19;30.80;1.00
42141;DHT22;27809;51.864;5.646;2023-07-08T11:27:47;30.90;1.00
42141;DHT22;27809;51.864;5.646;2023-07-08T11:30:17;30.80;1.00
42141;DHT22;27809;51.864;5.646;2023-07-08T11:32:48;31.00;1.00
42141;DHT22;27809;51.864;5.646;2023-07-08T11:35:33;31.20;1.00
42141;DHT22;27809;51.864;5.646;2023-07-08T11:38:00;31.40;1.00
42141;DHT22;27809;51.864;5.646;2023-07-08T11:40:26;31.00;1.00
42141;DHT22;27809;51.864;5.646;2023-07-08T11:42:59;31.20;1.00
42141;DHT22;27809;51.864;5.646;2023-07-08T11:45:34;31.20;1.00
42141;DHT22;27809;51.864;5.646;2023-07-08T11:50:44;31.00;1.00
42141;DHT22;27809;51.864;5.646;2023-07-08T11:53:14;31.30;1.00
42141;DHT22;27809;51.864;5.646;2023-07-08T11:58:31;30.60;1.00
42141;DHT22;27809;51.864;5.646;2023-07-08T12:00:58;31.00;1.00
42141;DHT22;27809;51.864;5.646;2023-07-08T12:05:59;31.10;1.00
42141;DHT22;27809;51.864;5.646;2023-07-08T12:08:34;31.10;1.00
42141;DHT22;27809;51.864;5.646;2023-07-08T12:11:03;30.90;1.00
42141;DHT22;27809;51.864;5.646;2023-07-08T12:13:29;31.00;1.00
42141;DHT22;27809;51.864;5.646;2023-07-08T12:15:55;31.10;1.00
42141;DHT22;27809;51.864;5.646;2023-07-08T12:18:24;30.90;1.00
42141;DHT22;27809;51.864;5.646;2023-07-08T12:20:56;31.00;1.00
42141;DHT22;27809;51.864;5.646;2023-07-08T12:23:25;31.00;1.00
42141;DHT22;27809;51.864;5.646;2023-07-08T12:25:52;30.90;1.00
42141;DHT22;27809;51.864;5.646;2023-07-08T12:28:19;31.00;1.00
42141;DHT22;27809;51.864;5.646;2023-07-08T12:30:46;31.00;1.00
42141;DHT22;27809;51.864;5.646;2023-07-08T12:33:14;30.90;1.00
42141;DHT22;27809;51.864;5.646;2023-07-08T12:35:42;30.90;1.00
42141;DHT22;27809;51.864;5.646;2023-07-08T12:38:21;31.00;1.00
42141;DHT22;27809;51.864;5.646;2023-07-08T12:40:50;31.00;1.00
42141;DHT22;27809;51.864;5.646;2023-07-08T12:43:16;31.00;1.00
42141;DHT22;27809;51.864;5.646;2023-07-08T12:45:43;31.10;1.00
42141;DHT22;27809;51.864;5.646;2023-07-08T12:48:09;31.20;1.00
42141;DHT22;27809;51.864;5.646;2023-07-08T12:50:34;31.10;1.00
42141;DHT22;27809;51.864;5.646;2023-07-08T12:53:00;31.00;1.00
42141;DHT22;27809;51.864;5.646;2023-07-08T12:55:30;31.00;1.00
42141;DHT22;27809;51.864;5.646;2023-07-08T12:57:56;31.00;1.00
42141;DHT22;27809;51.864;5.646;2023-07-08T13:00:26;31.00;1.00
42141;DHT22;27809;51.864;5.646;2023-07-08T13:03:06;31.20;1.00
42141;DHT22;27809;51.864;5.646;2023-07-08T13:05:32;31.20;1.00
42141;DHT22;27809;51.864;5.646;2023-07-08T13:07:59;31.20;1.00
42141;DHT22;27809;51.864;5.646;2023-07-08T13:10:26;31.30;1.00
42141;DHT22;27809;51.864;5.646;2023-07-08T13:12:58;31.20;1.00
42141;DHT22;27809;51.864;5.646;2023-07-08T13:15:29;31.10;1.00
42141;DHT22;27809;51.864;5.646;2023-07-08T13:17:58;31.10;1.00
42141;DHT22;27809;51.864;5.646;2023-07-08T13:20:24;31.20;1.00
42141;DHT22;27809;51.864;5.646;2023-07-08T13:23:01;31.20;1.00
42141;DHT22;27809;51.864;5.646;2023-07-08T13:25:29;31.30;1.00
42141;DHT22;27809;51.864;5.646;2023-07-08T13:28:13;31.30;1.00
42141;DHT22;27809;51.864;5.646;2023-07-08T13:30:39;31.30;1.00
42141;DHT22;27809;51.864;5.646;2023-07-08T13:33:14;31.40;1.00
42141;DHT22;27809;51.864;5.646;2023-07-08T13:35:40;31.40;1.00
42141;DHT22;27809;51.864;5.646;2023-07-08T13:38:15;31.60;1.00
42141;DHT22;27809;51.864;5.646;2023-07-08T13:40:46;31.70;1.00
42141;DHT22;27809;51.864;5.646;2023-07-08T13:43:12;31.70;1.00
42141;DHT22;27809;51.864;5.646;2023-07-08T13:45:43;31.80;1.00
42141;DHT22;27809;51.864;5.646;2023-07-08T13:48:38;31.90;1.00
42141;DHT22;27809;51.864;5.646;2023-07-08T13:51:11;31.90;1.00
42141;DHT22;27809;51.864;5.646;2023-07-08T13:56:22;32.00;1.00
42141;DHT22;27809;51.864;5.646;2023-07-08T13:58:50;32.00;1.00
42141;DHT22;27809;51.864;5.646;2023-07-08T14:01:20;32.00;1.00
42141;DHT22;27809;51.864;5.646;2023-07-08T14:03:47;32.00;1.00
42141;DHT22;27809;51.864;5.646;2023-07-08T14:06:22;32.20;1.00
42141;DHT22;27809;51.864;5.646;2023-07-08T14:08:48;32.30;1.00
42141;DHT22;27809;51.864;5.646;2023-07-08T14:11:14;32.70;1.00
42141;DHT22;27809;51.864;5.646;2023-07-08T14:13:39;32.60;1.00
42141;DHT22;27809;51.864;5.646;2023-07-08T14:18:44;32.30;1.00
42141;DHT22;27809;51.864;5.646;2023-07-08T14:21:10;32.40;1.00
42141;DHT22;27809;51.864;5.646;2023-07-08T14:23:35;32.40;1.00
42141;DHT22;27809;51.864;5.646;2023-07-08T14:26:01;32.70;1.00
42141;DHT22;27809;51.864;5.646;2023-07-08T14:28:26;32.70;1.00
42141;DHT22;27809;51.864;5.646;2023-07-08T14:30:52;32.60;1.00
42141;DHT22;27809;51.864;5.646;2023-07-08T14:33:18;32.70;1.00
42141;DHT22;27809;51.864;5.646;2023-07-08T14:35:43;32.70;1.00
42141;DHT22;27809;51.864;5.646;2023-07-08T14:38:11;33.00;1.00
42141;DHT22;27809;51.864;5.646;2023-07-08T14:40:39;33.10;1.00
42141;DHT22;27809;51.864;5.646;2023-07-08T14:43:22;32.80;1.00
42141;DHT22;27809;51.864;5.646;2023-07-08T14:45:51;33.00;1.00
42141;DHT22;27809;51.864;5.646;2023-07-08T14:48:18;33.30;1.00
42141;DHT22;27809;51.864;5.646;2023-07-08T14:50:44;33.10;1.00
42141;DHT22;27809;51.864;5.646;2023-07-08T14:53:10;32.70;1.00
42141;DHT22;27809;51.864;5.646;2023-07-08T14:55:36;32.50;1.00
42141;DHT22;27809;51.864;5.646;2023-07-08T14:58:02;32.30;1.00
42141;DHT22;27809;51.864;5.646;2023-07-08T15:00:28;32.50;1.00
42141;DHT22;27809;51.864;5.646;2023-07-08T15:02:54;32.80;1.00
42141;DHT22;27809;51.864;5.646;2023-07-08T15:05:25;32.80;1.00
42141;DHT22;27809;51.864;5.646;2023-07-08T15:07:56;32.50;1.00
42141;DHT22;27809;51.864;5.646;2023-07-08T15:10:27;32.20;1.00
42141;DHT22;27809;51.864;5.646;2023-07-08T15:12:54;32.20;1.00
42141;DHT22;27809;51.864;5.646;2023-07-08T15:15:31;32.40;1.00
42141;DHT22;27809;51.864;5.646;2023-07-08T15:17:58;32.60;1.00
42141;DHT22;27809;51.864;5.646;2023-07-08T15:20:24;33.00;1.00
42141;DHT22;27809;51.864;5.646;2023-07-08T15:22:50;33.30;1.00
42141;DHT22;27809;51.864;5.646;2023-07-08T15:25:17;33.60;1.00
42141;DHT22;27809;51.864;5.646;2023-07-08T15:27:48;33.50;1.00
42141;DHT22;27809;51.864;5.646;2023-07-08T15:30:20;33.20;1.00
42141;DHT22;27809;51.864;5.646;2023-07-08T15:32:46;33.20;1.00
42141;DHT22;27809;51.864;5.646;2023-07-08T15:35:26;32.60;1.00
42141;DHT22;27809;51.864;5.646;2023-07-08T15:37:55;32.40;1.00
42141;DHT22;27809;51.864;5.646;2023-07-08T15:40:22;31.90;1.00
42141;DHT22;27809;51.864;5.646;2023-07-08T15:42:51;31.70;1.00
42141;DHT22;27809;51.864;5.646;2023-07-08T15:47:47;30.90;1.00
42141;DHT22;27809;51.864;5.646;2023-07-08T15:50:14;30.80;1.00
42141;DHT22;27809;51.864;5.646;2023-07-08T15:52:41;30.70;1.00
42141;DHT22;27809;51.864;5.646;2023-07-08T15:55:11;30.70;1.00
42141;DHT22;27809;51.864;5.646;2023-07-08T15:57:45;30.50;1.00
42141;DHT22;27809;51.864;5.646;2023-07-08T16:00:16;30.40;1.00
42141;DHT22;27809;51.864;5.646;2023-07-08T16:02:48;30.50;1.00
42141;DHT22;27809;51.864;5.646;2023-07-08T16:05:15;30.50;1.00
42141;DHT22;27809;51.864;5.646;2023-07-08T16:07:40;30.40;1.00
42141;DHT22;27809;51.864;5.646;2023-07-08T16:10:07;30.40;1.00
42141;DHT22;27809;51.864;5.646;2023-07-08T16:12:33;30.40;1.00
42141;DHT22;27809;51.864;5.646;2023-07-08T16:14:59;30.40;1.00
42141;DHT22;27809;51.864;5.646;2023-07-08T16:17:24;30.20;1.00
42141;DHT22;27809;51.864;5.646;2023-07-08T16:19:50;30.00;1.00
42141;DHT22;27809;51.864;5.646;2023-07-08T16:22:15;30.00;1.00
42141;DHT22;27809;51.864;5.646;2023-07-08T16:24:41;29.80;1.00
42141;DHT22;27809;51.864;5.646;2023-07-08T16:27:08;29.70;1.00
42141;DHT22;27809;51.864;5.646;2023-07-08T16:29:35;29.70;1.00
42141;DHT22;27809;51.864;5.646;2023-07-08T16:32:00;29.70;1.00
42141;DHT22;27809;51.864;5.646;2023-07-08T16:34:26;29.70;1.00